Carrollton, MO

6:19 AM CDT on September 19, 2014 (GMT -0500)
Barlow Back Yard | Change Station
CLOSE
Current Station
Personal Weather Station
Location: Hale, MO
Elevation: 755 ft
Nearby Weather Stations
Active Advisory: Dense Fog Advisory

Elev 755 ft 39.59 °N, 93.30 °W | Updated 14 minutes ago

Partly Cloudy
Partly Cloudy
56.5 °F
Feels Like 56.5 °F
N
0.0
Wind Variable Wind from SSE

Today
High -- | Low -- °F
--% Chance of Precip.
Yesterday
High -- | Low -- °F
Precip. -- in
6:58 AM 7:15 PM
Waning Crescent, 20% visible
Pressure 30.03 in
Visibility 1.2 miles
Clouds Overcast 200 ft
Dew Point 56 °F
Humidity 98%
Rainfall 0.00 in
Snow Depth Not available.
UV 0 out of 12
Pollen 5.40 out of 12
Air Quality Not available.
Flu Activity Not available.
METAR KRCM 191055Z AUTO 10003KT 1 1/4SM BR OVC002 15/14 A3003 RMK AO2

More Conditions Fewer Conditions

Pressure 30.03 in
Visibility 1.2 miles
Clouds Overcast 200 ft
Dew Point 56 °F
Humidity 98%
Rainfall 0.00 in
Snow Depth Not available.
UV 0 out of 12
Pollen 5.40 out of 12
Air Quality Not available.
Flu Activity Not available.
METAR KRCM 191055Z AUTO 10003KT 1 1/4SM BR OVC002 15/14 A3003 RMK AO2

More Conditions Fewer Conditions

10-Day Weather Forecast

Almanac

Astronomy

Sep. 19, 2014 Rise Set
Actual Time 6:58 AM CDT 7:15 PM CDT
Civil Twilight 6:32 AM CDT 7:42 PM CDT
Nautical Twilight 6:00 AM CDT 8:14 PM CDT
Astronomical Twilight 5:28 AM CDT 8:46 PM CDT
Moon 2:45 AM CDT 4:44 PM CDT
Length of Visible Light 13h 10m
Length of Day
12h 16m
Tomorrow will be 2m 33s shorter.
Waning Crescent, 20% of the Moon is Illuminated
Today
Waning Crescent
Sep 24
New
Oct 1
First Quarter
Oct 8
Full
Oct 15
Last Quarter

Today's Extremes

State Highs State Lows

Community

WunderPhotos

Upload Photos

1,754,592 photos uploaded!

WunderBlogs® & News

Nearby

Snow Depth

Station Depth Elevation
No new snow has been reported.

Earthquake Activity

City Distance Mag. Time & Date
No recent earthquake activity has been reported nearby.
Minimum magnitude displayed is 2.5.

Coastal Water Temperatures

Place Temperature
No Stations Reporting

Nearby Weather Stations